METAR Analyzer

一覧表示

Hello, Guest. (Login)

LTBA/ISL  -  イスタンブール・アタテュルク

観測日時
2021-05-15 16:50 (UTC) (34分前)
気温
20
露点
12
湿数
8
相対湿度
60%
QNH
1009hPa
推定現地気圧
1003.0hPa
推定海面気圧
1008.9hPa
体感温度
15.1
(無風時)
20.1
HI
19.6
気温前日比
+1
体感温度前日比
+1.5
HI前日比
+0.6
水平視程
>10000m
鉛直視程
データなし
雲底高度
No dense clouds
V/I
VMC (VFR)
RVR
No RVR data
卓越風
3kt from 130° (100° ~ 170°)
ガスト
No gust
降水
報告なし
その他の天気
報告なし
報告なし

LTBA 151650Z 13003KT 100V170 CAVOK 20/12 Q1009 NOSIG RMK RWY23 12004KT

LTFM/IST  -  イスタンブール (新)

観測日時
2021-05-15 16:50 (UTC) (34分前)
気温
22
露点
6
湿数
16
相対湿度
35.4%
QNH
1010hPa
推定現地気圧
998.2hPa
推定海面気圧
1009.7hPa
体感温度
14.5
(無風時)
20.4
HI
21.2
気温前日比
-1
体感温度前日比
-0.9
HI前日比
-1.4
水平視程
>10000m
鉛直視程
データなし
雲底高度
No dense clouds
V/I
VMC (VFR)
RVR
No RVR data
卓越風
7kt from 110°
ガスト
No gust
降水
報告なし
その他の天気
報告なし
報告なし

LTFM 151650Z 11007KT CAVOK 22/06 Q1010 NOSIG RMK RWY17L 10008KT RWY34L 08007KT 030V110 RWY16R 10008KT RWY36 10009KT RWY18 10009KT

4.5msec